sensor_id;sensor_type;location;lat;lon;timestamp;temperature;humidity
25918;DHT22;13899;51.174;4.456;2022-09-03T00:05:07;20.90;68.70
25918;DHT22;13899;51.174;4.456;2022-09-03T00:07:38;20.90;68.60
25918;DHT22;13899;51.174;4.456;2022-09-03T00:10:17;21.10;68.30
25918;DHT22;13899;51.174;4.456;2022-09-03T00:12:45;21.00;68.20
25918;DHT22;13899;51.174;4.456;2022-09-03T00:15:15;20.90;69.10
25918;DHT22;13899;51.174;4.456;2022-09-03T00:17:59;20.80;69.70
25918;DHT22;13899;51.174;4.456;2022-09-03T00:20:50;20.60;70.80
25918;DHT22;13899;51.174;4.456;2022-09-03T00:23:27;20.80;70.10
25918;DHT22;13899;51.174;4.456;2022-09-03T00:31:17;21.10;69.30
25918;DHT22;13899;51.174;4.456;2022-09-03T00:33:47;21.10;69.60
25918;DHT22;13899;51.174;4.456;2022-09-03T00:36:15;20.80;70.90
25918;DHT22;13899;51.174;4.456;2022-09-03T00:38:41;20.70;71.30
25918;DHT22;13899;51.174;4.456;2022-09-03T00:47:09;20.60;72.60
25918;DHT22;13899;51.174;4.456;2022-09-03T00:52:19;20.60;73.20
25918;DHT22;13899;51.174;4.456;2022-09-03T01:00:26;20.40;74.90
25918;DHT22;13899;51.174;4.456;2022-09-03T01:05:47;20.40;75.50
25918;DHT22;13899;51.174;4.456;2022-09-03T01:25:16;20.30;78.40
25918;DHT22;13899;51.174;4.456;2022-09-03T01:31:07;20.50;77.80
25918;DHT22;13899;51.174;4.456;2022-09-03T01:36:33;20.40;79.70
25918;DHT22;13899;51.174;4.456;2022-09-03T01:39:05;20.30;79.70
25918;DHT22;13899;51.174;4.456;2022-09-03T01:41:59;20.20;80.10
25918;DHT22;13899;51.174;4.456;2022-09-03T01:44:48;20.30;80.30
25918;DHT22;13899;51.174;4.456;2022-09-03T01:47:29;20.30;80.60
25918;DHT22;13899;51.174;4.456;2022-09-03T01:52:55;20.10;82.40
25918;DHT22;13899;51.174;4.456;2022-09-03T02:01:44;20.20;83.60
25918;DHT22;13899;51.174;4.456;2022-09-03T02:04:22;20.20;83.50
25918;DHT22;13899;51.174;4.456;2022-09-03T02:06:49;20.20;83.70
25918;DHT22;13899;51.174;4.456;2022-09-03T02:09:16;20.10;84.00
25918;DHT22;13899;51.174;4.456;2022-09-03T02:11:42;20.00;84.30
25918;DHT22;13899;51.174;4.456;2022-09-03T02:14:11;20.00;85.70
25918;DHT22;13899;51.174;4.456;2022-09-03T02:16:37;19.90;86.30
25918;DHT22;13899;51.174;4.456;2022-09-03T02:19:09;19.80;87.10
25918;DHT22;13899;51.174;4.456;2022-09-03T02:21:38;19.80;88.40
25918;DHT22;13899;51.174;4.456;2022-09-03T02:24:05;19.80;87.70
25918;DHT22;13899;51.174;4.456;2022-09-03T02:26:32;19.90;87.50
25918;DHT22;13899;51.174;4.456;2022-09-03T02:28:58;19.90;87.20
25918;DHT22;13899;51.174;4.456;2022-09-03T02:31:25;19.90;87.60
25918;DHT22;13899;51.174;4.456;2022-09-03T02:33:53;19.90;88.70
25918;DHT22;13899;51.174;4.456;2022-09-03T02:36:24;19.80;88.60
25918;DHT22;13899;51.174;4.456;2022-09-03T02:38:51;19.70;89.90
25918;DHT22;13899;51.174;4.456;2022-09-03T02:41:17;19.70;90.10
25918;DHT22;13899;51.174;4.456;2022-09-03T02:44:07;19.70;90.10
25918;DHT22;13899;51.174;4.456;2022-09-03T02:46:39;19.70;90.40
25918;DHT22;13899;51.174;4.456;2022-09-03T02:49:05;19.40;91.00
25918;DHT22;13899;51.174;4.456;2022-09-03T02:51:33;19.20;91.70
25918;DHT22;13899;51.174;4.456;2022-09-03T02:53:59;19.00;92.60
25918;DHT22;13899;51.174;4.456;2022-09-03T02:56:25;19.20;92.70
25918;DHT22;13899;51.174;4.456;2022-09-03T02:58:52;19.40;92.70
25918;DHT22;13899;51.174;4.456;2022-09-03T03:01:17;19.60;92.50
25918;DHT22;13899;51.174;4.456;2022-09-03T03:03:43;19.50;92.50
25918;DHT22;13899;51.174;4.456;2022-09-03T03:06:09;19.60;92.40
25918;DHT22;13899;51.174;4.456;2022-09-03T03:08:35;19.80;92.00
25918;DHT22;13899;51.174;4.456;2022-09-03T03:11:01;20.00;91.90
25918;DHT22;13899;51.174;4.456;2022-09-03T03:13:28;19.90;91.90
25918;DHT22;13899;51.174;4.456;2022-09-03T03:15:59;19.80;91.70
25918;DHT22;13899;51.174;4.456;2022-09-03T03:18:25;19.90;92.00
25918;DHT22;13899;51.174;4.456;2022-09-03T03:20:52;20.00;91.90
25918;DHT22;13899;51.174;4.456;2022-09-03T03:23:18;20.00;92.00
25918;DHT22;13899;51.174;4.456;2022-09-03T03:25:43;19.90;91.60
25918;DHT22;13899;51.174;4.456;2022-09-03T03:28:09;19.70;92.30
25918;DHT22;13899;51.174;4.456;2022-09-03T03:30:38;19.50;92.70
25918;DHT22;13899;51.174;4.456;2022-09-03T03:33:05;19.50;93.40
25918;DHT22;13899;51.174;4.456;2022-09-03T03:35:31;19.40;93.60
25918;DHT22;13899;51.174;4.456;2022-09-03T03:37:58;19.60;93.30
25918;DHT22;13899;51.174;4.456;2022-09-03T03:40:24;19.70;93.30
25918;DHT22;13899;51.174;4.456;2022-09-03T03:42:49;19.80;93.00
25918;DHT22;13899;51.174;4.456;2022-09-03T03:45:15;19.90;93.30
25918;DHT22;13899;51.174;4.456;2022-09-03T03:47:41;19.90;93.40
25918;DHT22;13899;51.174;4.456;2022-09-03T03:50:07;20.00;93.20
25918;DHT22;13899;51.174;4.456;2022-09-03T03:52:33;19.80;93.20
25918;DHT22;13899;51.174;4.456;2022-09-03T03:54:58;19.80;93.90
25918;DHT22;13899;51.174;4.456;2022-09-03T03:57:24;19.90;93.90
25918;DHT22;13899;51.174;4.456;2022-09-03T03:59:50;19.90;93.90
25918;DHT22;13899;51.174;4.456;2022-09-03T04:02:16;19.90;93.70
25918;DHT22;13899;51.174;4.456;2022-09-03T04:04:42;20.10;93.20
25918;DHT22;13899;51.174;4.456;2022-09-03T04:07:08;20.00;93.60
25918;DHT22;13899;51.174;4.456;2022-09-03T04:09:34;20.00;93.60
25918;DHT22;13899;51.174;4.456;2022-09-03T04:12:00;20.00;94.10
25918;DHT22;13899;51.174;4.456;2022-09-03T04:14:26;19.70;94.60
25918;DHT22;13899;51.174;4.456;2022-09-03T04:16:52;19.70;95.00
25918;DHT22;13899;51.174;4.456;2022-09-03T04:19:18;19.70;95.30
25918;DHT22;13899;51.174;4.456;2022-09-03T04:21:47;19.80;95.60
25918;DHT22;13899;51.174;4.456;2022-09-03T04:24:13;19.80;94.90
25918;DHT22;13899;51.174;4.456;2022-09-03T04:26:39;19.80;95.00
25918;DHT22;13899;51.174;4.456;2022-09-03T04:29:06;19.90;94.90
25918;DHT22;13899;51.174;4.456;2022-09-03T04:31:33;20.00;95.10
25918;DHT22;13899;51.174;4.456;2022-09-03T04:33:59;19.90;95.50
25918;DHT22;13899;51.174;4.456;2022-09-03T04:36:27;20.00;95.70
25918;DHT22;13899;51.174;4.456;2022-09-03T04:38:54;20.00;95.40
25918;DHT22;13899;51.174;4.456;2022-09-03T04:41:22;19.90;95.20
25918;DHT22;13899;51.174;4.456;2022-09-03T04:43:50;19.50;96.40
25918;DHT22;13899;51.174;4.456;2022-09-03T04:46:17;19.70;96.60
25918;DHT22;13899;51.174;4.456;2022-09-03T04:48:48;19.80;96.10
25918;DHT22;13899;51.174;4.456;2022-09-03T04:51:17;19.70;96.30
25918;DHT22;13899;51.174;4.456;2022-09-03T04:53:45;19.90;96.40
25918;DHT22;13899;51.174;4.456;2022-09-03T04:56:17;20.00;96.20
25918;DHT22;13899;51.174;4.456;2022-09-03T04:58:44;19.90;96.70
25918;DHT22;13899;51.174;4.456;2022-09-03T05:01:11;20.00;96.70
25918;DHT22;13899;51.174;4.456;2022-09-03T05:03:37;20.00;96.90
25918;DHT22;13899;51.174;4.456;2022-09-03T05:06:03;20.10;96.70
25918;DHT22;13899;51.174;4.456;2022-09-03T05:08:30;20.00;97.40
25918;DHT22;13899;51.174;4.456;2022-09-03T05:10:58;20.00;97.60
25918;DHT22;13899;51.174;4.456;2022-09-03T05:13:25;20.00;97.60
25918;DHT22;13899;51.174;4.456;2022-09-03T05:15:50;20.10;97.50
25918;DHT22;13899;51.174;4.456;2022-09-03T05:18:16;20.00;98.10
25918;DHT22;13899;51.174;4.456;2022-09-03T05:20:44;20.00;98.00
25918;DHT22;13899;51.174;4.456;2022-09-03T05:23:10;20.00;98.00
25918;DHT22;13899;51.174;4.456;2022-09-03T05:25:39;20.10;97.60
25918;DHT22;13899;51.174;4.456;2022-09-03T05:28:06;20.10;98.00
25918;DHT22;13899;51.174;4.456;2022-09-03T05:30:32;20.10;98.10
25918;DHT22;13899;51.174;4.456;2022-09-03T05:32:58;20.10;98.00
25918;DHT22;13899;51.174;4.456;2022-09-03T05:35:27;20.00;98.60
25918;DHT22;13899;51.174;4.456;2022-09-03T05:37:54;20.10;98.40
25918;DHT22;13899;51.174;4.456;2022-09-03T05:40:23;20.10;98.70
25918;DHT22;13899;51.174;4.456;2022-09-03T05:42:55;20.00;98.90
25918;DHT22;13899;51.174;4.456;2022-09-03T05:45:22;20.00;98.80
25918;DHT22;13899;51.174;4.456;2022-09-03T05:48:04;20.00;99.30
25918;DHT22;13899;51.174;4.456;2022-09-03T05:50:47;19.90;99.90
25918;DHT22;13899;51.174;4.456;2022-09-03T05:53:14;19.90;99.80
25918;DHT22;13899;51.174;4.456;2022-09-03T05:56:02;19.90;99.60
25918;DHT22;13899;51.174;4.456;2022-09-03T05:58:50;20.00;99.90
25918;DHT22;13899;51.174;4.456;2022-09-03T06:01:24;19.80;99.90
25918;DHT22;13899;51.174;4.456;2022-09-03T06:03:55;19.70;99.90
25918;DHT22;13899;51.174;4.456;2022-09-03T06:06:22;19.80;99.90
25918;DHT22;13899;51.174;4.456;2022-09-03T06:08:50;19.80;99.90
25918;DHT22;13899;51.174;4.456;2022-09-03T06:11:16;20.00;99.90
25918;DHT22;13899;51.174;4.456;2022-09-03T06:13:42;20.00;99.90
25918;DHT22;13899;51.174;4.456;2022-09-03T06:16:08;20.00;99.90
25918;DHT22;13899;51.174;4.456;2022-09-03T06:18:34;20.10;99.90
25918;DHT22;13899;51.174;4.456;2022-09-03T06:21:03;20.20;99.90
25918;DHT22;13899;51.174;4.456;2022-09-03T06:23:30;19.80;99.90
25918;DHT22;13899;51.174;4.456;2022-09-03T06:26:04;19.80;99.90
25918;DHT22;13899;51.174;4.456;2022-09-03T06:28:31;19.80;99.90
25918;DHT22;13899;51.174;4.456;2022-09-03T06:30:59;19.70;99.90
25918;DHT22;13899;51.174;4.456;2022-09-03T06:33:27;19.70;99.90
25918;DHT22;13899;51.174;4.456;2022-09-03T06:35:56;19.90;99.90
25918;DHT22;13899;51.174;4.456;2022-09-03T06:38:28;19.80;99.90
25918;DHT22;13899;51.174;4.456;2022-09-03T06:40:59;19.90;99.90
25918;DHT22;13899;51.174;4.456;2022-09-03T06:43:30;20.00;99.90
25918;DHT22;13899;51.174;4.456;2022-09-03T06:46:10;20.00;99.90
25918;DHT22;13899;51.174;4.456;2022-09-03T06:48:37;19.70;99.90
25918;DHT22;13899;51.174;4.456;2022-09-03T06:51:30;19.70;99.90
25918;DHT22;13899;51.174;4.456;2022-09-03T06:54:35;19.80;99.90
25918;DHT22;13899;51.174;4.456;2022-09-03T06:57:05;19.90;99.90
25918;DHT22;13899;51.174;4.456;2022-09-03T06:59:30;19.80;99.90
25918;DHT22;13899;51.174;4.456;2022-09-03T07:01:56;19.50;99.90
25918;DHT22;13899;51.174;4.456;2022-09-03T07:04:24;19.20;99.90
25918;DHT22;13899;51.174;4.456;2022-09-03T07:06:52;19.40;99.90
25918;DHT22;13899;51.174;4.456;2022-09-03T07:09:19;19.70;99.90
25918;DHT22;13899;51.174;4.456;2022-09-03T07:11:44;20.00;99.90
25918;DHT22;13899;51.174;4.456;2022-09-03T07:14:14;20.20;99.90
25918;DHT22;13899;51.174;4.456;2022-09-03T07:16:41;20.20;99.90
25918;DHT22;13899;51.174;4.456;2022-09-03T07:19:07;20.30;99.90
25918;DHT22;13899;51.174;4.456;2022-09-03T07:21:35;20.50;99.90
25918;DHT22;13899;51.174;4.456;2022-09-03T07:24:06;20.60;99.90
25918;DHT22;13899;51.174;4.456;2022-09-03T07:26:37;20.70;99.90
25918;DHT22;13899;51.174;4.456;2022-09-03T07:29:05;20.80;99.90
25918;DHT22;13899;51.174;4.456;2022-09-03T07:31:43;20.80;99.90
25918;DHT22;13899;51.174;4.456;2022-09-03T07:34:31;20.80;99.90
25918;DHT22;13899;51.174;4.456;2022-09-03T07:37:00;20.70;99.90
25918;DHT22;13899;51.174;4.456;2022-09-03T07:39:25;20.50;99.90
25918;DHT22;13899;51.174;4.456;2022-09-03T07:41:51;20.60;99.90
25918;DHT22;13899;51.174;4.456;2022-09-03T07:44:17;21.00;99.90
25918;DHT22;13899;51.174;4.456;2022-09-03T07:46:48;21.20;99.90
25918;DHT22;13899;51.174;4.456;2022-09-03T07:49:15;21.30;99.90
25918;DHT22;13899;51.174;4.456;2022-09-03T07:52:02;21.60;99.90
25918;DHT22;13899;51.174;4.456;2022-09-03T07:54:34;21.80;99.90
25918;DHT22;13899;51.174;4.456;2022-09-03T07:57:00;21.80;99.90
25918;DHT22;13899;51.174;4.456;2022-09-03T07:59:26;21.90;99.90
25918;DHT22;13899;51.174;4.456;2022-09-03T08:01:52;21.90;99.90
25918;DHT22;13899;51.174;4.456;2022-09-03T08:04:17;22.20;99.90
25918;DHT22;13899;51.174;4.456;2022-09-03T08:06:44;22.20;99.90
25918;DHT22;13899;51.174;4.456;2022-09-03T08:09:11;22.40;99.90
25918;DHT22;13899;51.174;4.456;2022-09-03T08:11:40;22.60;99.90
25918;DHT22;13899;51.174;4.456;2022-09-03T08:14:08;22.80;99.90
25918;DHT22;13899;51.174;4.456;2022-09-03T08:16:39;23.00;99.90
25918;DHT22;13899;51.174;4.456;2022-09-03T08:19:06;23.30;99.90
25918;DHT22;13899;51.174;4.456;2022-09-03T08:21:34;23.70;99.90
25918;DHT22;13899;51.174;4.456;2022-09-03T08:24:00;23.70;99.00
25918;DHT22;13899;51.174;4.456;2022-09-03T08:26:33;23.90;99.00
25918;DHT22;13899;51.174;4.456;2022-09-03T08:29:00;24.40;97.80
25918;DHT22;13899;51.174;4.456;2022-09-03T08:31:27;24.70;96.80
25918;DHT22;13899;51.174;4.456;2022-09-03T08:33:55;24.80;95.90
25918;DHT22;13899;51.174;4.456;2022-09-03T08:36:23;25.30;95.30
25918;DHT22;13899;51.174;4.456;2022-09-03T08:38:50;25.50;94.20
25918;DHT22;13899;51.174;4.456;2022-09-03T08:41:44;24.30;95.20
25918;DHT22;13899;51.174;4.456;2022-09-03T08:44:38;24.10;96.90
25918;DHT22;13899;51.174;4.456;2022-09-03T08:47:57;23.80;97.50
25918;DHT22;13899;51.174;4.456;2022-09-03T08:50:00;24.40;96.90
25918;DHT22;13899;51.174;4.456;2022-09-03T08:57:44;25.30;97.20
25918;DHT22;13899;51.174;4.456;2022-09-03T09:00:11;26.00;95.50
25918;DHT22;13899;51.174;4.456;2022-09-03T09:03:06;26.70;95.00
25918;DHT22;13899;51.174;4.456;2022-09-03T09:09:00;28.60;90.70
25918;DHT22;13899;51.174;4.456;2022-09-03T09:19:38;26.70;94.20
25918;DHT22;13899;51.174;4.456;2022-09-03T09:22:15;28.10;92.50
25918;DHT22;13899;51.174;4.456;2022-09-03T09:24:44;29.20;91.50
25918;DHT22;13899;51.174;4.456;2022-09-03T09:27:15;29.70;89.40
25918;DHT22;13899;51.174;4.456;2022-09-03T09:29:45;29.80;90.20
25918;DHT22;13899;51.174;4.456;2022-09-03T09:32:13;29.60;89.10
25918;DHT22;13899;51.174;4.456;2022-09-03T09:34:41;29.50;87.70
25918;DHT22;13899;51.174;4.456;2022-09-03T09:37:11;27.70;91.10
25918;DHT22;13899;51.174;4.456;2022-09-03T09:39:39;28.60;92.20
25918;DHT22;13899;51.174;4.456;2022-09-03T09:42:06;29.70;89.80
25918;DHT22;13899;51.174;4.456;2022-09-03T09:44:37;28.40;89.90
25918;DHT22;13899;51.174;4.456;2022-09-03T09:47:06;27.40;91.10
25918;DHT22;13899;51.174;4.456;2022-09-03T09:49:37;28.30;91.40
25918;DHT22;13899;51.174;4.456;2022-09-03T09:52:13;29.20;90.00
25918;DHT22;13899;51.174;4.456;2022-09-03T09:54:41;30.60;87.10
25918;DHT22;13899;51.174;4.456;2022-09-03T09:57:15;31.20;83.90
25918;DHT22;13899;51.174;4.456;2022-09-03T09:59:43;29.10;84.40
25918;DHT22;13899;51.174;4.456;2022-09-03T10:02:19;27.80;90.00
25918;DHT22;13899;51.174;4.456;2022-09-03T10:04:50;28.20;90.70
25918;DHT22;13899;51.174;4.456;2022-09-03T10:07:27;30.20;86.20
25918;DHT22;13899;51.174;4.456;2022-09-03T10:12:53;30.30;81.30
25918;DHT22;13899;51.174;4.456;2022-09-03T10:15:39;28.10;88.10
25918;DHT22;13899;51.174;4.456;2022-09-03T10:18:22;28.10;91.30
25918;DHT22;13899;51.174;4.456;2022-09-03T10:21:42;28.70;88.40
25918;DHT22;13899;51.174;4.456;2022-09-03T10:26:47;30.00;84.90
25918;DHT22;13899;51.174;4.456;2022-09-03T10:29:19;30.30;85.90
25918;DHT22;13899;51.174;4.456;2022-09-03T10:38:32;28.70;88.40
25918;DHT22;13899;51.174;4.456;2022-09-03T10:46:32;28.30;90.70
25918;DHT22;13899;51.174;4.456;2022-09-03T10:49:16;29.00;90.10
25918;DHT22;13899;51.174;4.456;2022-09-03T11:02:34;33.10;78.50
25918;DHT22;13899;51.174;4.456;2022-09-03T11:08:29;31.50;79.40
25918;DHT22;13899;51.174;4.456;2022-09-03T11:11:21;31.20;79.50
25918;DHT22;13899;51.174;4.456;2022-09-03T11:14:12;30.40;80.60
25918;DHT22;13899;51.174;4.456;2022-09-03T11:17:05;30.70;82.20
25918;DHT22;13899;51.174;4.456;2022-09-03T11:20:31;32.10;80.00
25918;DHT22;13899;51.174;4.456;2022-09-03T11:23:15;32.30;77.30
25918;DHT22;13899;51.174;4.456;2022-09-03T11:25:57;31.50;78.10
25918;DHT22;13899;51.174;4.456;2022-09-03T11:28:52;30.90;81.90
25918;DHT22;13899;51.174;4.456;2022-09-03T11:34:56;29.80;85.70
25918;DHT22;13899;51.174;4.456;2022-09-03T11:37:29;29.30;86.20
25918;DHT22;13899;51.174;4.456;2022-09-03T11:40:03;28.70;90.50
25918;DHT22;13899;51.174;4.456;2022-09-03T11:42:37;28.40;87.70
25918;DHT22;13899;51.174;4.456;2022-09-03T11:48:15;27.30;91.80
25918;DHT22;13899;51.174;4.456;2022-09-03T11:50:51;27.50;92.30
25918;DHT22;13899;51.174;4.456;2022-09-03T11:53:24;27.30;93.90
25918;DHT22;13899;51.174;4.456;2022-09-03T11:56:00;27.50;94.50
25918;DHT22;13899;51.174;4.456;2022-09-03T11:58:39;28.80;93.40
25918;DHT22;13899;51.174;4.456;2022-09-03T12:01:14;30.20;91.00
25918;DHT22;13899;51.174;4.456;2022-09-03T12:04:29;30.80;88.20
25918;DHT22;13899;51.174;4.456;2022-09-03T12:10:49;32.90;80.10
25918;DHT22;13899;51.174;4.456;2022-09-03T12:16:59;31.50;81.40
25918;DHT22;13899;51.174;4.456;2022-09-03T12:19:49;30.90;79.50
25918;DHT22;13899;51.174;4.456;2022-09-03T12:22:35;31.80;78.90
25918;DHT22;13899;51.174;4.456;2022-09-03T12:25:21;31.40;78.30
25918;DHT22;13899;51.174;4.456;2022-09-03T12:28:09;31.90;78.40
25918;DHT22;13899;51.174;4.456;2022-09-03T12:30:39;31.90;78.30
25918;DHT22;13899;51.174;4.456;2022-09-03T12:33:16;30.10;82.70
25918;DHT22;13899;51.174;4.456;2022-09-03T12:36:17;30.00;83.40
25918;DHT22;13899;51.174;4.456;2022-09-03T12:38:47;29.70;87.40
25918;DHT22;13899;51.174;4.456;2022-09-03T12:41:27;29.70;86.80
25918;DHT22;13899;51.174;4.456;2022-09-03T12:44:26;30.60;84.20
25918;DHT22;13899;51.174;4.456;2022-09-03T12:47:09;30.10;84.10
25918;DHT22;13899;51.174;4.456;2022-09-03T12:49:50;28.60;88.80
25918;DHT22;13899;51.174;4.456;2022-09-03T12:55:01;28.50;90.50
25918;DHT22;13899;51.174;4.456;2022-09-03T12:57:34;29.80;88.20
25918;DHT22;13899;51.174;4.456;2022-09-03T13:00:09;29.90;85.80
25918;DHT22;13899;51.174;4.456;2022-09-03T13:05:39;32.00;82.30
25918;DHT22;13899;51.174;4.456;2022-09-03T13:08:08;34.10;74.00
25918;DHT22;13899;51.174;4.456;2022-09-03T13:10:40;33.60;72.60
25918;DHT22;13899;51.174;4.456;2022-09-03T13:13:30;33.70;72.50
25918;DHT22;13899;51.174;4.456;2022-09-03T13:20:07;30.90;75.60
25918;DHT22;13899;51.174;4.456;2022-09-03T13:34:21;30.70;78.40
25918;DHT22;13899;51.174;4.456;2022-09-03T13:37:05;31.00;78.80
25918;DHT22;13899;51.174;4.456;2022-09-03T13:39:45;30.60;78.90
25918;DHT22;13899;51.174;4.456;2022-09-03T13:42:39;31.00;79.10
25918;DHT22;13899;51.174;4.456;2022-09-03T13:48:58;31.30;76.90
25918;DHT22;13899;51.174;4.456;2022-09-03T13:52:10;29.90;79.50
25918;DHT22;13899;51.174;4.456;2022-09-03T13:55:08;29.80;80.50
25918;DHT22;13899;51.174;4.456;2022-09-03T13:57:49;29.00;84.20
25918;DHT22;13899;51.174;4.456;2022-09-03T14:00:42;30.40;81.20
25918;DHT22;13899;51.174;4.456;2022-09-03T14:03:42;31.90;76.20
25918;DHT22;13899;51.174;4.456;2022-09-03T14:09:08;30.90;75.80
25918;DHT22;13899;51.174;4.456;2022-09-03T14:12:03;30.60;76.70
25918;DHT22;13899;51.174;4.456;2022-09-03T14:14:57;31.00;75.90
25918;DHT22;13899;51.174;4.456;2022-09-03T14:17:39;31.00;75.80
25918;DHT22;13899;51.174;4.456;2022-09-03T14:20:28;31.40;77.10
25918;DHT22;13899;51.174;4.456;2022-09-03T14:23:02;31.70;74.10
25918;DHT22;13899;51.174;4.456;2022-09-03T14:25:29;31.80;74.60
25918;DHT22;13899;51.174;4.456;2022-09-03T14:28:14;30.30;77.20
25918;DHT22;13899;51.174;4.456;2022-09-03T14:52:37;32.20;76.00
25918;DHT22;13899;51.174;4.456;2022-09-03T15:00:50;32.20;75.80
25918;DHT22;13899;51.174;4.456;2022-09-03T15:11:34;30.80;77.20
25918;DHT22;13899;51.174;4.456;2022-09-03T15:14:21;30.70;78.10
25918;DHT22;13899;51.174;4.456;2022-09-03T15:16:59;30.50;79.60
25918;DHT22;13899;51.174;4.456;2022-09-03T15:19:35;30.30;80.60
25918;DHT22;13899;51.174;4.456;2022-09-03T15:30:09;30.20;80.30
25918;DHT22;13899;51.174;4.456;2022-09-03T15:38:37;30.10;81.90
25918;DHT22;13899;51.174;4.456;2022-09-03T15:41:32;30.30;82.50
25918;DHT22;13899;51.174;4.456;2022-09-03T15:43:58;30.30;80.20
25918;DHT22;13899;51.174;4.456;2022-09-03T15:54:49;30.70;79.90
25918;DHT22;13899;51.174;4.456;2022-09-03T16:02:17;30.40;80.60
25918;DHT22;13899;51.174;4.456;2022-09-03T16:10:38;30.40;82.60
25918;DHT22;13899;51.174;4.456;2022-09-03T16:13:31;30.20;84.30
25918;DHT22;13899;51.174;4.456;2022-09-03T16:16:05;30.20;81.20
25918;DHT22;13899;51.174;4.456;2022-09-03T16:18:39;30.20;81.30
25918;DHT22;13899;51.174;4.456;2022-09-03T16:21:20;30.00;84.60
25918;DHT22;13899;51.174;4.456;2022-09-03T16:26:33;30.10;90.00
25918;DHT22;13899;51.174;4.456;2022-09-03T16:29:11;29.80;88.80
25918;DHT22;13899;51.174;4.456;2022-09-03T16:31:56;30.00;89.70
25918;DHT22;13899;51.174;4.456;2022-09-03T16:45:52;28.90;91.80
25918;DHT22;13899;51.174;4.456;2022-09-03T16:48:42;28.80;92.30
25918;DHT22;13899;51.174;4.456;2022-09-03T16:54:39;29.00;93.10
25918;DHT22;13899;51.174;4.456;2022-09-03T16:57:24;29.20;92.90
25918;DHT22;13899;51.174;4.456;2022-09-03T17:05:17;28.70;94.40
25918;DHT22;13899;51.174;4.456;2022-09-03T17:13:34;27.70;97.30
25918;DHT22;13899;51.174;4.456;2022-09-03T17:18:40;27.00;99.90
25918;DHT22;13899;51.174;4.456;2022-09-03T17:21:30;27.00;99.90
25918;DHT22;13899;51.174;4.456;2022-09-03T17:24:04;26.90;99.90
25918;DHT22;13899;51.174;4.456;2022-09-03T17:29:17;26.70;99.90
25918;DHT22;13899;51.174;4.456;2022-09-03T17:42:49;25.90;99.90
25918;DHT22;13899;51.174;4.456;2022-09-03T17:48:07;25.00;99.90
25918;DHT22;13899;51.174;4.456;2022-09-03T17:50:59;25.00;99.90
25918;DHT22;13899;51.174;4.456;2022-09-03T17:53:38;24.60;99.90
25918;DHT22;13899;51.174;4.456;2022-09-03T17:59:27;24.60;99.90
25918;DHT22;13899;51.174;4.456;2022-09-03T18:02:17;24.80;99.90
25918;DHT22;13899;51.174;4.456;2022-09-03T18:05:02;25.00;99.90
25918;DHT22;13899;51.174;4.456;2022-09-03T18:07:58;25.10;99.90
25918;DHT22;13899;51.174;4.456;2022-09-03T18:10:48;24.80;99.90
25918;DHT22;13899;51.174;4.456;2022-09-03T18:16:02;24.90;99.90
25918;DHT22;13899;51.174;4.456;2022-09-03T18:22:20;25.10;99.90
25918;DHT22;13899;51.174;4.456;2022-09-03T18:25:08;25.20;99.90
25918;DHT22;13899;51.174;4.456;2022-09-03T18:28:18;25.10;99.90
25918;DHT22;13899;51.174;4.456;2022-09-03T18:31:12;24.90;99.90
25918;DHT22;13899;51.174;4.456;2022-09-03T18:33:59;24.70;99.90
25918;DHT22;13899;51.174;4.456;2022-09-03T18:36:43;24.80;99.90
25918;DHT22;13899;51.174;4.456;2022-09-03T18:39:30;24.70;99.90
25918;DHT22;13899;51.174;4.456;2022-09-03T18:49:10;24.40;99.90
25918;DHT22;13899;51.174;4.456;2022-09-03T18:52:04;24.20;99.90
25918;DHT22;13899;51.174;4.456;2022-09-03T18:55:16;24.00;99.90
25918;DHT22;13899;51.174;4.456;2022-09-03T18:58:14;23.90;99.90
25918;DHT22;13899;51.174;4.456;2022-09-03T19:01:28;23.80;99.90
25918;DHT22;13899;51.174;4.456;2022-09-03T19:04:29;23.50;99.90
25918;DHT22;13899;51.174;4.456;2022-09-03T19:10:24;23.00;99.90
25918;DHT22;13899;51.174;4.456;2022-09-03T19:13:32;22.70;99.90
25918;DHT22;13899;51.174;4.456;2022-09-03T19:22:38;22.70;99.90
25918;DHT22;13899;51.174;4.456;2022-09-03T19:25:25;23.00;99.90
25918;DHT22;13899;51.174;4.456;2022-09-03T19:28:24;23.20;99.90
25918;DHT22;13899;51.174;4.456;2022-09-03T20:11:20;22.50;99.90
25918;DHT22;13899;51.174;4.456;2022-09-03T20:14:00;22.40;99.90
25918;DHT22;13899;51.174;4.456;2022-09-03T20:36:13;23.30;99.90
25918;DHT22;13899;51.174;4.456;2022-09-03T20:55:43;23.10;99.90
25918;DHT22;13899;51.174;4.456;2022-09-03T21:01:56;23.00;99.90
25918;DHT22;13899;51.174;4.456;2022-09-03T21:05:02;23.00;99.90
25918;DHT22;13899;51.174;4.456;2022-09-03T21:11:16;22.90;99.90
25918;DHT22;13899;51.174;4.456;2022-09-03T21:17:06;23.00;99.90
25918;DHT22;13899;51.174;4.456;2022-09-03T21:26:25;23.10;99.90
25918;DHT22;13899;51.174;4.456;2022-09-03T21:38:21;23.10;99.90
25918;DHT22;13899;51.174;4.456;2022-09-03T21:41:25;22.90;99.90
25918;DHT22;13899;51.174;4.456;2022-09-03T21:44:10;23.00;99.90
25918;DHT22;13899;51.174;4.456;2022-09-03T21:46:57;23.00;99.90
25918;DHT22;13899;51.174;4.456;2022-09-03T21:49:31;22.90;99.90
25918;DHT22;13899;51.174;4.456;2022-09-03T21:52:20;22.60;99.90
25918;DHT22;13899;51.174;4.456;2022-09-03T21:54:47;22.70;99.90
25918;DHT22;13899;51.174;4.456;2022-09-03T21:57:43;22.60;99.90
25918;DHT22;13899;51.174;4.456;2022-09-03T22:00:16;22.70;99.90
25918;DHT22;13899;51.174;4.456;2022-09-03T22:02:43;21.80;99.90
25918;DHT22;13899;51.174;4.456;2022-09-03T22:05:15;21.60;99.90
25918;DHT22;13899;51.174;4.456;2022-09-03T22:11:21;21.90;99.90
25918;DHT22;13899;51.174;4.456;2022-09-03T22:14:08;21.80;99.90
25918;DHT22;13899;51.174;4.456;2022-09-03T22:17:09;21.80;99.90
25918;DHT22;13899;51.174;4.456;2022-09-03T22:19:37;21.70;99.90
25918;DHT22;13899;51.174;4.456;2022-09-03T22:22:37;21.50;99.90
25918;DHT22;13899;51.174;4.456;2022-09-03T22:28:25;21.40;99.90
25918;DHT22;13899;51.174;4.456;2022-09-03T22:31:26;21.50;99.90
25918;DHT22;13899;51.174;4.456;2022-09-03T22:34:22;21.20;99.90
25918;DHT22;13899;51.174;4.456;2022-09-03T22:37:00;21.70;99.90
25918;DHT22;13899;51.174;4.456;2022-09-03T22:39:40;21.50;99.90
25918;DHT22;13899;51.174;4.456;2022-09-03T22:45:04;21.90;99.90
25918;DHT22;13899;51.174;4.456;2022-09-03T22:53:53;22.20;99.90
25918;DHT22;13899;51.174;4.456;2022-09-03T22:56:14;22.30;99.90
25918;DHT22;13899;51.174;4.456;2022-09-03T23:07:18;21.70;99.90
25918;DHT22;13899;51.174;4.456;2022-09-03T23:10:00;21.90;99.90
25918;DHT22;13899;51.174;4.456;2022-09-03T23:12:58;21.90;99.90
25918;DHT22;13899;51.174;4.456;2022-09-03T23:15:28;21.90;99.90
25918;DHT22;13899;51.174;4.456;2022-09-03T23:18:14;21.90;99.90
25918;DHT22;13899;51.174;4.456;2022-09-03T23:21:14;21.90;99.90